Time;durP1;ratioP1;P1;durP2;ratioP2;P2;SDS_P1;SDS_P2;PMS_P1;PMS_P2;Temp;Humidity;BMP_temperature;BMP_pressure;BME280_temperature;BME280_humidity;BME280_pressure;Samples;Min_cycle;Max_cycle;Signal;HPM_P1;HPM_P2
2021/07/10 00:01:54;;;;;;;46.72;28.38;;;15.50;99.90;;;;;;4990816;28;20054;-69
2021/07/10 00:04:21;;;;;;;48.33;28.52;;;15.60;99.90;;;;;;4997938;28;20117;-69
2021/07/10 00:06:47;;;;;;;47.70;30.30;;;15.60;99.90;;;;;;4996629;28;20081;-69
2021/07/10 00:09:13;;;;;;;45.00;28.00;;;15.50;99.90;;;;;;4997750;28;20113;-69
2021/07/10 00:11:40;;;;;;;47.15;29.70;;;15.60;99.90;;;;;;4992329;28;20486;-69
2021/07/10 00:14:06;;;;;;;42.30;27.90;;;15.60;99.90;;;;;;5005685;28;20069;-69
2021/07/10 00:16:32;;;;;;;47.67;29.92;;;15.50;99.90;;;;;;5003016;28;20121;-69
2021/07/10 00:18:58;;;;;;;47.55;30.25;;;15.50;99.90;;;;;;5004536;28;20066;-69
2021/07/10 00:21:24;;;;;;;55.25;31.23;;;15.50;99.90;;;;;;4991718;28;20054;-69
2021/07/10 00:23:50;;;;;;;46.33;29.30;;;15.40;99.90;;;;;;4999669;28;20050;-69
2021/07/10 00:26:16;;;;;;;55.83;29.65;;;15.40;99.90;;;;;;4992585;28;20429;-69
2021/07/10 00:28:43;;;;;;;52.58;30.40;;;15.40;99.90;;;;;;4997357;28;20046;-69
2021/07/10 00:31:09;;;;;;;56.70;32.20;;;15.40;99.90;;;;;;4999562;28;20046;-69
2021/07/10 00:33:35;;;;;;;47.22;29.55;;;15.40;99.90;;;;;;5004429;28;20050;-69
2021/07/10 00:36:01;;;;;;;52.00;32.25;;;15.40;99.90;;;;;;4999512;28;20049;-69
2021/07/10 00:38:26;;;;;;;49.03;31.35;;;15.40;99.90;;;;;;5002749;28;20043;-69
2021/07/10 00:40:52;;;;;;;46.35;28.90;;;15.50;99.90;;;;;;4996974;28;20050;-69
2021/07/10 00:43:18;;;;;;;52.45;31.20;;;15.60;99.90;;;;;;5000283;28;20121;-70
2021/07/10 00:45:44;;;;;;;50.67;31.20;;;15.60;99.90;;;;;;5004568;28;20045;-69
2021/07/10 00:48:10;;;;;;;46.80;32.08;;;15.60;99.90;;;;;;5004394;28;20490;-70
2021/07/10 00:50:35;;;;;;;47.15;30.17;;;15.60;99.90;;;;;;5001123;28;20050;-69
2021/07/10 00:53:01;;;;;;;45.28;29.92;;;15.60;99.90;;;;;;4987519;28;20421;-69
2021/07/10 00:55:27;;;;;;;50.95;31.08;;;15.60;99.90;;;;;;4999611;28;20038;-69
2021/07/10 00:57:54;;;;;;;51.13;30.80;;;15.60;99.90;;;;;;5003280;28;20050;-69
2021/07/10 01:00:23;;;;;;;48.10;29.48;;;15.60;99.90;;;;;;4993740;28;20050;-69
2021/07/10 01:02:50;;;;;;;51.03;29.75;;;15.60;99.90;;;;;;4995751;28;20074;-69
2021/07/10 01:05:37;;;;;;;51.03;31.13;;;15.60;99.90;;;;;;4997240;28;20043;-69
2021/07/10 01:08:03;;;;;;;55.35;30.45;;;15.50;99.90;;;;;;5004113;28;20051;-68
2021/07/10 01:10:29;;;;;;;53.80;33.05;;;15.50;99.90;;;;;;4999691;28;20046;-69
2021/07/10 01:12:56;;;;;;;51.95;31.13;;;15.40;99.90;;;;;;4997787;28;20556;-69
2021/07/10 01:15:24;;;;;;;52.75;32.10;;;15.40;99.90;;;;;;4990596;28;20047;-69
2021/07/10 01:17:50;;;;;;;51.67;30.40;;;15.30;99.90;;;;;;4993223;28;20082;-69
2021/07/10 01:20:21;;;;;;;51.55;31.02;;;15.40;99.90;;;;;;5005640;28;20057;-70
2021/07/10 01:22:48;;;;;;;54.10;32.65;;;15.30;99.90;;;;;;5002923;28;20042;-69
2021/07/10 01:25:16;;;;;;;;;;;15.30;99.90;;;;;;4993243;28;20042;-70
2021/07/10 01:27:43;;;;;;;59.83;34.10;;;15.40;99.90;;;;;;5004633;28;19925;-69
2021/07/10 01:30:14;;;;;;;55.45;30.88;;;15.30;99.90;;;;;;5004509;28;20042;-69
2021/07/10 01:32:41;;;;;;;52.03;30.50;;;15.20;99.90;;;;;;5003841;28;20046;-69
2021/07/10 01:35:09;;;;;;;56.30;32.20;;;15.20;99.90;;;;;;4999824;28;20657;-70
2021/07/10 01:37:41;;;;;;;58.17;31.88;;;15.10;99.90;;;;;;4993833;28;20046;-69
2021/07/10 01:40:10;;;;;;;55.70;33.03;;;15.00;99.90;;;;;;4999067;28;20119;-69
2021/07/10 01:42:35;;;;;;;58.55;33.55;;;14.90;99.90;;;;;;4993560;28;20130;-69
2021/07/10 01:45:01;;;;;;;57.17;33.13;;;14.80;99.90;;;;;;4996859;28;20418;-70
2021/07/10 01:47:27;;;;;;;53.97;31.80;;;14.80;99.90;;;;;;5005356;28;20053;-69
2021/07/10 01:49:53;;;;;;;59.03;31.73;;;14.70;99.90;;;;;;4991447;28;20038;-69
2021/07/10 01:52:19;;;;;;;57.10;33.35;;;14.70;99.90;;;;;;4998433;28;20109;-69
2021/07/10 01:54:45;;;;;;;61.30;36.08;;;14.70;99.90;;;;;;5000758;28;20056;-69
2021/07/10 01:57:11;;;;;;;60.60;34.53;;;14.70;99.90;;;;;;5003653;28;20506;-69
2021/07/10 01:59:40;;;;;;;62.60;35.85;;;14.70;99.90;;;;;;4994429;28;20042;-69
2021/07/10 02:02:06;;;;;;;59.03;32.63;;;14.60;99.90;;;;;;4996916;28;20046;-69
2021/07/10 02:04:42;;;;;;;54.65;33.22;;;14.60;99.90;;;;;;4995890;28;20081;-69
2021/07/10 02:07:08;;;;;;;55.63;34.20;;;14.60;99.90;;;;;;4995942;28;20046;-69
2021/07/10 02:09:34;;;;;;;58.45;33.95;;;14.60;99.90;;;;;;4997385;28;20429;-69
2021/07/10 02:12:00;;;;;;;57.25;34.13;;;14.50;99.90;;;;;;4999259;28;20494;-69
2021/07/10 02:14:26;;;;;;;57.40;35.15;;;14.50;99.90;;;;;;4991927;28;20043;-69
2021/07/10 02:16:51;;;;;;;58.33;33.67;;;14.40;99.90;;;;;;4990126;28;20049;-69
2021/07/10 02:19:17;;;;;;;57.90;32.97;;;14.40;99.90;;;;;;4995272;28;20077;-69
2021/07/10 02:21:43;;;;;;;58.28;36.13;;;14.40;99.90;;;;;;4994385;28;20078;-69
2021/07/10 02:24:09;;;;;;;63.53;36.95;;;14.30;99.90;;;;;;4995355;28;20046;-68
2021/07/10 02:26:36;;;;;;;56.65;34.00;;;14.30;99.90;;;;;;5002022;28;20046;-69
2021/07/10 02:29:05;;;;;;;61.40;36.38;;;14.20;99.90;;;;;;5004330;28;20046;-68
2021/07/10 02:31:31;;;;;;;65.47;35.92;;;14.20;99.90;;;;;;4996090;28;20038;-69
2021/07/10 02:33:57;;;;;;;68.57;37.78;;;14.10;99.90;;;;;;5000576;28;20046;-69
2021/07/10 02:36:22;;;;;;;67.13;37.08;;;14.20;99.90;;;;;;5002841;28;20050;-69
2021/07/10 02:38:48;;;;;;;71.57;37.83;;;14.20;99.90;;;;;;4995997;28;20046;-69
2021/07/10 02:41:14;;;;;;;67.30;36.03;;;14.30;99.90;;;;;;5001408;28;20058;-69
2021/07/10 02:43:40;;;;;;;63.80;36.17;;;14.20;99.90;;;;;;5000875;28;20053;-69
2021/07/10 02:46:06;;;;;;;60.08;36.65;;;14.20;99.90;;;;;;5001819;28;20046;-69
2021/07/10 02:48:32;;;;;;;63.90;36.05;;;14.20;99.90;;;;;;5004222;28;20050;-69
2021/07/10 02:50:57;;;;;;;59.97;34.67;;;14.10;99.90;;;;;;5002243;28;20053;-69
2021/07/10 02:53:23;;;;;;;69.10;37.72;;;14.20;99.90;;;;;;5002664;28;20049;-69
2021/07/10 02:55:49;;;;;;;73.38;37.58;;;14.10;99.90;;;;;;4992865;28;20254;-69
2021/07/10 02:58:15;;;;;;;70.22;38.55;;;14.10;99.90;;;;;;5000547;28;20102;-69
2021/07/10 03:00:41;;;;;;;67.22;36.05;;;14.00;99.90;;;;;;4998172;28;20097;-69
2021/07/10 03:03:07;;;;;;;67.80;38.25;;;14.00;99.90;;;;;;4990065;28;20039;-69
2021/07/10 03:05:33;;;;;;;68.13;38.58;;;14.00;99.90;;;;;;5000380;28;20133;-69
2021/07/10 03:08:03;;;;;;;77.30;41.45;;;14.00;99.90;;;;;;5002710;28;20066;-69
2021/07/10 03:10:29;;;;;;;76.95;41.22;;;13.90;99.90;;;;;;5003107;28;20042;-69
2021/07/10 03:12:57;;;;;;;81.97;45.38;;;13.90;99.90;;;;;;4992496;28;20141;-69
2021/07/10 03:15:23;;;;;;;73.78;40.28;;;13.90;99.90;;;;;;4997135;28;20043;-69
2021/07/10 03:17:50;;;;;;;72.73;40.40;;;13.80;99.90;;;;;;4984738;28;20143;-69
2021/07/10 03:20:19;;;;;;;87.47;44.47;;;13.80;99.90;;;;;;4998931;28;20047;-69
2021/07/10 03:22:45;;;;;;;83.78;43.33;;;13.80;99.90;;;;;;4992475;28;20106;-69
2021/07/10 03:25:12;;;;;;;77.22;38.63;;;13.80;99.90;;;;;;4993127;28;20046;-69
2021/07/10 03:27:39;;;;;;;75.15;40.72;;;13.80;99.90;;;;;;4991860;28;20038;-68
2021/07/10 03:30:07;;;;;;;77.75;40.28;;;13.80;99.90;;;;;;5001402;28;20245;-69
2021/07/10 03:32:34;;;;;;;73.60;39.70;;;13.70;99.90;;;;;;4997080;28;20046;-69
2021/07/10 03:34:59;;;;;;;80.88;43.40;;;13.60;99.90;;;;;;5002674;28;20133;-69
2021/07/10 03:37:25;;;;;;;79.43;42.22;;;13.60;99.90;;;;;;4987301;28;20094;-69
2021/07/10 03:39:51;;;;;;;88.00;43.33;;;13.50;99.90;;;;;;4995162;28;20058;-69
2021/07/10 03:42:17;;;;;;;73.40;39.08;;;13.50;99.90;;;;;;5000570;28;20296;-69
2021/07/10 03:44:43;;;;;;;80.45;41.13;;;13.50;99.90;;;;;;5005089;28;20821;-69
2021/07/10 03:47:09;;;;;;;77.20;41.45;;;13.50;99.90;;;;;;4994904;28;20058;-69
2021/07/10 03:49:34;;;;;;;83.70;41.33;;;13.50;99.90;;;;;;5002439;28;20102;-69
2021/07/10 03:52:00;;;;;;;78.03;41.40;;;13.50;99.90;;;;;;4999516;28;20105;-69
2021/07/10 03:54:26;;;;;;;74.65;39.38;;;13.60;99.90;;;;;;4997089;28;20055;-69
2021/07/10 03:56:52;;;;;;;70.30;38.28;;;13.60;99.90;;;;;;5002254;28;20038;-69
2021/07/10 03:59:17;;;;;;;72.97;38.67;;;13.70;99.90;;;;;;5004184;28;20043;-69
2021/07/10 04:01:45;;;;;;;;;;;13.70;99.90;;;;;;5002163;28;20046;-69
2021/07/10 04:04:14;;;;;;;70.72;36.40;;;13.80;99.90;;;;;;4993787;28;20025;-69
2021/07/10 04:06:41;;;;;;;63.40;36.85;;;13.80;99.90;;;;;;5002822;28;20088;-68
2021/07/10 04:09:07;;;;;;;78.05;39.10;;;13.80;99.90;;;;;;5005046;28;20054;-68
2021/07/10 04:11:33;;;;;;;62.50;34.83;;;13.80;99.90;;;;;;5006478;28;20050;-68
2021/07/10 04:14:00;;;;;;;72.57;36.40;;;13.90;99.90;;;;;;5006124;28;20046;-68
2021/07/10 04:16:25;;;;;;;67.18;37.72;;;14.00;99.90;;;;;;5006085;28;20116;-69
2021/07/10 04:18:51;;;;;;;68.43;36.70;;;14.10;99.90;;;;;;5005055;28;20097;-69
2021/07/10 04:21:17;;;;;;;58.92;34.13;;;14.30;99.90;;;;;;5004416;28;20054;-69
2021/07/10 04:23:46;;;;;;;62.50;33.55;;;14.40;99.90;;;;;;4998695;28;20057;-69
2021/07/10 04:26:12;;;;;;;61.50;33.53;;;14.50;99.90;;;;;;4995810;28;20102;-69
2021/07/10 04:28:42;;;;;;;53.65;32.45;;;14.70;99.90;;;;;;5000656;28;20050;-69
2021/07/10 04:31:09;;;;;;;54.72;31.92;;;14.70;99.90;;;;;;4997281;28;20097;-69
2021/07/10 04:33:35;;;;;;;43.90;28.85;;;14.70;99.90;;;;;;4999833;28;20050;-68
2021/07/10 04:36:01;;;;;;;52.75;30.23;;;14.80;99.90;;;;;;5000175;28;20038;-69
2021/07/10 04:38:27;;;;;;;42.25;27.58;;;14.90;99.90;;;;;;4993466;28;20085;-68
2021/07/10 04:40:52;;;;;;;48.10;30.17;;;15.00;99.90;;;;;;5002934;28;20047;-69
2021/07/10 04:43:18;;;;;;;45.10;27.75;;;15.10;99.90;;;;;;5004314;28;20058;-72
2021/07/10 04:45:44;;;;;;;50.17;30.20;;;15.10;99.90;;;;;;5003589;28;20062;-69
2021/07/10 04:48:10;;;;;;;49.47;29.15;;;15.10;99.90;;;;;;4993373;28;20042;-68
2021/07/10 04:50:36;;;;;;;50.08;31.27;;;15.10;99.90;;;;;;4989091;28;20098;-68
2021/07/10 04:53:03;;;;;;;50.78;31.02;;;15.10;99.90;;;;;;5006450;28;20486;-69
2021/07/10 04:55:29;;;;;;;47.75;29.52;;;15.10;99.90;;;;;;4993405;28;20093;-69
2021/07/10 04:57:56;;;;;;;52.60;29.80;;;15.20;99.90;;;;;;5002372;28;20089;-69
2021/07/10 05:00:24;;;;;;;47.03;29.52;;;15.20;99.90;;;;;;5003124;28;20043;-69
2021/07/10 05:02:50;;;;;;;44.75;28.80;;;15.30;99.90;;;;;;5004086;28;20046;-69
2021/07/10 05:05:16;;;;;;;43.08;27.95;;;15.30;99.90;;;;;;4999820;28;20050;-69
2021/07/10 05:07:44;;;;;;;44.28;28.42;;;15.30;99.90;;;;;;4998384;28;20066;-69
2021/07/10 05:10:11;;;;;;;43.35;27.27;;;15.40;99.90;;;;;;5002138;28;20169;-69
2021/07/10 05:12:37;;;;;;;47.33;28.55;;;15.40;99.90;;;;;;4999852;28;20043;-68
2021/07/10 05:15:03;;;;;;;44.05;28.48;;;15.50;99.90;;;;;;5001173;28;20085;-68
2021/07/10 05:17:29;;;;;;;45.65;28.55;;;15.60;99.90;;;;;;4998557;28;20125;-68
2021/07/10 05:19:55;;;;;;;43.03;28.40;;;15.70;99.90;;;;;;4998788;28;20399;-68
2021/07/10 05:22:21;;;;;;;42.00;27.45;;;15.60;99.90;;;;;;5002223;28;20038;-69
2021/07/10 05:24:46;;;;;;;39.47;27.27;;;15.70;99.90;;;;;;4997526;28;20050;-68
2021/07/10 05:27:12;;;;;;;40.97;25.67;;;15.70;99.90;;;;;;4998526;28;20665;-68
2021/07/10 05:29:38;;;;;;;40.53;25.00;;;15.80;99.90;;;;;;4994600;28;20092;-68
2021/07/10 05:32:05;;;;;;;32.80;23.35;;;15.90;99.90;;;;;;5002822;28;20054;-68
2021/07/10 05:34:31;;;;;;;36.55;24.50;;;15.90;99.90;;;;;;4994316;28;20061;-68
2021/07/10 05:36:56;;;;;;;30.23;22.35;;;16.00;99.90;;;;;;5003607;28;20046;-68
2021/07/10 05:39:22;;;;;;;35.42;22.88;;;16.00;99.90;;;;;;4991978;28;20100;-68
2021/07/10 05:41:48;;;;;;;33.72;22.02;;;16.00;99.90;;;;;;5004207;28;20048;-69
2021/07/10 05:44:14;;;;;;;26.08;19.80;;;16.10;99.90;;;;;;4993671;28;20113;-68
2021/07/10 05:46:39;;;;;;;22.75;17.33;;;16.20;99.90;;;;;;4990737;28;20070;-67
2021/07/10 05:49:05;;;;;;;20.80;16.20;;;16.30;99.90;;;;;;4996884;28;20046;-68
2021/07/10 05:51:31;;;;;;;27.88;18.08;;;16.30;99.90;;;;;;4996635;28;20107;-67
2021/07/10 05:53:57;;;;;;;28.38;19.73;;;16.40;99.90;;;;;;4990151;28;20043;-68
2021/07/10 05:56:23;;;;;;;28.33;19.95;;;16.50;99.90;;;;;;4997036;28;20050;-68
2021/07/10 05:58:48;;;;;;;23.77;15.98;;;16.70;99.90;;;;;;4994648;28;20054;-68
2021/07/10 06:01:14;;;;;;;19.20;13.95;;;16.80;99.90;;;;;;4990282;28;20043;-68
2021/07/10 06:03:40;;;;;;;23.10;16.67;;;16.90;99.90;;;;;;4996223;28;20046;-68
2021/07/10 06:06:06;;;;;;;21.80;16.00;;;17.10;99.90;;;;;;4995793;28;20426;-68
2021/07/10 06:08:32;;;;;;;21.33;15.93;;;17.20;99.90;;;;;;4991184;28;20082;-68
2021/07/10 06:10:58;;;;;;;20.15;15.18;;;17.40;99.90;;;;;;4991805;28;20482;-61
2021/07/10 06:13:24;;;;;;;18.00;14.43;;;17.80;99.90;;;;;;4990084;28;20042;-61
2021/07/10 06:15:50;;;;;;;22.15;17.08;;;17.70;99.90;;;;;;4999932;28;20046;-61
2021/07/10 06:18:16;;;;;;;23.38;18.00;;;18.10;99.90;;;;;;4990640;28;20054;-60
2021/07/10 06:20:42;;;;;;;23.58;17.67;;;18.30;99.90;;;;;;4990925;28;20502;-60
2021/07/10 06:23:08;;;;;;;23.38;17.05;;;18.40;99.90;;;;;;4995216;28;20073;-60
2021/07/10 06:25:36;;;;;;;23.92;16.90;;;18.50;99.90;;;;;;4994407;28;20054;-60
2021/07/10 06:28:05;;;;;;;22.60;17.25;;;18.80;99.90;;;;;;4997327;28;20046;-61
2021/07/10 06:30:31;;;;;;;19.90;15.90;;;18.80;99.90;;;;;;4990830;28;20049;-60
2021/07/10 06:32:57;;;;;;;20.40;14.30;;;19.00;99.90;;;;;;5000152;28;20038;-60
2021/07/10 06:35:23;;;;;;;19.48;13.93;;;19.50;99.90;;;;;;5000041;28;20060;-61
2021/07/10 06:37:49;;;;;;;15.55;13.38;;;19.40;99.90;;;;;;4997711;28;20046;-62
2021/07/10 06:40:18;;;;;;;12.38;11.02;;;19.50;99.90;;;;;;4987067;28;20054;-61
2021/07/10 06:42:44;;;;;;;15.00;10.35;;;19.30;99.90;;;;;;4994755;28;20053;-60
2021/07/10 06:45:12;;;;;;;12.25;10.63;;;19.30;99.90;;;;;;4991170;28;20050;-60
2021/07/10 06:47:38;;;;;;;11.98;8.50;;;19.50;99.90;;;;;;4998226;28;20042;-60
2021/07/10 06:50:06;;;;;;;13.43;11.30;;;19.70;99.90;;;;;;4990475;28;20070;-60
2021/07/10 06:52:32;;;;;;;14.27;11.18;;;19.90;99.90;;;;;;4996817;28;20066;-60
2021/07/10 06:54:58;;;;;;;11.88;9.20;;;19.70;99.90;;;;;;4999796;28;20061;-60
2021/07/10 06:57:24;;;;;;;10.93;9.75;;;19.80;99.90;;;;;;4997733;28;20046;-59
2021/07/10 06:59:49;;;;;;;12.60;8.25;;;19.90;99.90;;;;;;5003318;28;20061;-60
2021/07/10 07:02:15;;;;;;;12.73;9.65;;;19.90;99.90;;;;;;4987639;28;20406;-61
2021/07/10 07:04:41;;;;;;;9.27;6.97;;;19.60;99.90;;;;;;4988764;28;20056;-60
2021/07/10 07:07:07;;;;;;;7.30;5.80;;;19.80;99.90;;;;;;4984473;28;20046;-60
2021/07/10 07:09:33;;;;;;;9.70;7.63;;;20.30;99.90;;;;;;4994540;28;20050;-61
2021/07/10 07:11:59;;;;;;;12.00;9.15;;;19.90;99.90;;;;;;4985672;28;20101;-61
2021/07/10 07:14:25;;;;;;;12.82;10.80;;;19.50;99.90;;;;;;4983589;28;20053;-61
2021/07/10 07:16:50;;;;;;;14.20;9.60;;;19.20;99.90;;;;;;4986829;28;20057;-61
2021/07/10 07:19:16;;;;;;;11.40;8.45;;;19.30;99.90;;;;;;4986143;28;20118;-61
2021/07/10 07:21:42;;;;;;;7.38;6.45;;;19.50;99.90;;;;;;4986723;28;20053;-61
2021/07/10 07:24:08;;;;;;;10.23;8.52;;;20.10;99.90;;;;;;4988724;28;20098;-61
2021/07/10 07:26:35;;;;;;;9.30;8.13;;;20.60;99.90;;;;;;4999354;28;20042;-60
2021/07/10 07:29:01;;;;;;;10.27;7.75;;;20.90;99.90;;;;;;4994530;28;20043;-60
2021/07/10 07:31:27;;;;;;;9.70;8.52;;;20.20;99.90;;;;;;4984722;28;20053;-61
2021/07/10 07:33:54;;;;;;;8.65;6.40;;;19.70;99.90;;;;;;4997053;28;20057;-61
2021/07/10 07:36:19;;;;;;;9.07;7.35;;;19.90;99.90;;;;;;4995367;28;20042;-60
2021/07/10 07:38:45;;;;;;;10.45;8.60;;;20.20;99.90;;;;;;4988678;28;20049;-59
2021/07/10 07:41:11;;;;;;;8.95;7.85;;;19.60;99.90;;;;;;4991849;28;20043;-59
2021/07/10 07:43:37;;;;;;;8.52;7.70;;;19.90;99.90;;;;;;4994536;28;20043;-60
2021/07/10 07:46:03;;;;;;;8.73;7.30;;;20.20;99.90;;;;;;4989471;28;20039;-60
2021/07/10 07:48:29;;;;;;;18.77;7.45;;;20.40;99.90;;;;;;4991652;28;20486;-60
2021/07/10 07:50:54;;;;;;;11.45;9.25;;;20.80;99.90;;;;;;4986583;28;20073;-62
2021/07/10 07:53:20;;;;;;;11.15;9.57;;;20.90;99.90;;;;;;4993428;28;20046;-60
2021/07/10 07:55:47;;;;;;;11.70;9.45;;;20.30;99.90;;;;;;4992346;28;20054;-60
2021/07/10 07:58:13;;;;;;;10.13;8.75;;;20.00;99.90;;;;;;4991487;28;20123;-61
2021/07/10 08:00:40;;;;;;;9.47;8.40;;;19.80;99.90;;;;;;4997441;28;20039;-60
2021/07/10 08:03:05;;;;;;;11.05;9.18;;;20.10;99.90;;;;;;4995597;28;20790;-61
2021/07/10 08:05:31;;;;;;;12.52;10.65;;;19.90;99.90;;;;;;4997781;28;20039;-60
2021/07/10 08:07:57;;;;;;;10.60;8.60;;;19.50;99.90;;;;;;4997914;28;20053;-61
2021/07/10 08:10:23;;;;;;;10.85;9.00;;;19.80;99.90;;;;;;4996462;28;20050;-64
2021/07/10 08:12:50;;;;;;;11.48;6.15;;;19.90;99.90;;;;;;4996300;28;20046;-60
2021/07/10 08:15:21;;;;;;;8.45;6.85;;;20.20;99.90;;;;;;4986225;28;20047;-60
2021/07/10 08:17:50;;;;;;;6.60;5.90;;;20.60;99.90;;;;;;4990587;28;20117;-60
2021/07/10 08:20:16;;;;;;;9.35;7.40;;;20.80;99.90;;;;;;4996610;28;20209;-60
2021/07/10 08:22:45;;;;;;;10.70;6.45;;;20.80;99.90;;;;;;4985711;28;20050;-60
2021/07/10 08:25:12;;;;;;;9.20;7.15;;;20.80;99.90;;;;;;4992507;28;20070;-60
2021/07/10 08:27:39;;;;;;;8.10;6.68;;;20.60;99.90;;;;;;4997379;28;20107;-60
2021/07/10 08:30:06;;;;;;;8.07;7.20;;;20.60;99.90;;;;;;4993995;28;20100;-59
2021/07/10 08:32:32;;;;;;;8.10;6.70;;;20.60;99.90;;;;;;4994237;28;20404;-60
2021/07/10 08:34:58;;;;;;;8.65;6.68;;;20.40;99.90;;;;;;4996440;28;20046;-60
2021/07/10 08:37:24;;;;;;;10.57;7.88;;;20.40;99.90;;;;;;4994063;28;20053;-60
2021/07/10 08:39:50;;;;;;;7.95;6.68;;;20.30;99.90;;;;;;4998677;28;20064;-60
2021/07/10 08:42:17;;;;;;;7.25;5.20;;;19.90;99.90;;;;;;5000345;28;20185;-60
2021/07/10 08:44:45;;;;;;;6.57;4.83;;;19.90;99.90;;;;;;4989902;28;20046;-60
2021/07/10 08:47:14;;;;;;;8.02;4.70;;;19.60;99.90;;;;;;4991858;28;20116;-61
2021/07/10 08:49:41;;;;;;;5.03;4.53;;;19.60;99.90;;;;;;4991337;28;20086;-62
2021/07/10 08:52:07;;;;;;;6.00;4.15;;;19.70;99.90;;;;;;4996352;28;20045;-60
2021/07/10 08:54:33;;;;;;;5.07;3.93;;;19.80;99.90;;;;;;4990868;28;20077;-59
2021/07/10 08:56:59;;;;;;;5.80;4.30;;;19.70;99.90;;;;;;4994131;28;20314;-58
2021/07/10 08:59:25;;;;;;;5.97;4.47;;;19.80;99.90;;;;;;4992227;28;20047;-59
2021/07/10 09:01:53;;;;;;;4.50;4.10;;;20.00;99.90;;;;;;4992758;28;20042;-60
2021/07/10 09:04:23;;;;;;;5.55;3.97;;;20.40;99.90;;;;;;4991242;28;20078;-61
2021/07/10 09:06:50;;;;;;;5.43;4.70;;;20.30;99.90;;;;;;4991595;28;20107;-61
2021/07/10 09:09:17;;;;;;;4.50;3.85;;;20.30;99.90;;;;;;4993576;28;20046;-61
2021/07/10 09:11:59;;;;;;;4.07;3.35;;;20.30;99.90;;;;;;4996706;28;20043;-61
2021/07/10 09:14:30;;;;;;;7.05;3.90;;;20.80;99.90;;;;;;4991300;28;20062;-61
2021/07/10 09:16:55;;;;;;;5.70;4.40;;;21.20;99.90;;;;;;4986922;28;20054;-61
2021/07/10 09:19:25;;;;;;;4.45;3.78;;;21.10;99.90;;;;;;4992093;28;20058;-65
2021/07/10 09:21:52;;;;;;;5.28;4.32;;;21.00;99.90;;;;;;4990082;28;20057;-62
2021/07/10 09:24:30;;;;;;;4.22;3.20;;;21.10;99.90;;;;;;5002878;28;20047;-63
2021/07/10 09:26:58;;;;;;;8.53;4.80;;;21.40;99.90;;;;;;4988448;28;20615;-63
2021/07/10 09:29:45;;;;;;;4.80;4.35;;;21.00;99.90;;;;;;4997742;28;20730;-65
2021/07/10 09:32:14;;;;;;;6.25;4.15;;;20.90;99.90;;;;;;5002363;28;20050;-63
2021/07/10 09:34:44;;;;;;;5.85;3.95;;;21.70;99.90;;;;;;5003303;28;20073;-63
2021/07/10 09:37:12;;;;;;;5.90;3.30;;;22.10;99.90;;;;;;4996789;28;20046;-62
2021/07/10 09:40:05;;;;;;;5.60;4.90;;;22.30;99.90;;;;;;4992485;28;20056;-63
2021/07/10 09:42:32;;;;;;;5.32;4.13;;;21.70;99.90;;;;;;4989067;28;20491;-66
2021/07/10 09:44:58;;;;;;;4.78;4.28;;;21.90;99.90;;;;;;5001216;28;20057;-64
2021/07/10 09:47:32;;;;;;;4.90;4.18;;;21.80;99.90;;;;;;4997087;28;20042;-63
2021/07/10 09:49:59;;;;;;;5.80;4.03;;;22.20;99.90;;;;;;4998424;28;20065;-63
2021/07/10 09:52:28;;;;;;;;;;;22.40;99.90;;;;;;4995603;28;20046;-68
2021/07/10 09:55:04;;;;;;;6.82;5.43;;;22.70;99.90;;;;;;4987418;28;19922;-68
2021/07/10 09:57:34;;;;;;;5.18;4.30;;;22.80;99.90;;;;;;4989744;28;20050;-64
2021/07/10 10:00:04;;;;;;;4.95;3.70;;;22.00;99.90;;;;;;4995873;28;20038;-66
2021/07/10 10:02:33;;;;;;;5.90;4.68;;;21.50;99.90;;;;;;4995704;28;20085;-62
2021/07/10 10:05:11;;;;;;;7.03;4.20;;;21.40;99.90;;;;;;5005338;28;20105;-64
2021/07/10 10:07:47;;;;;;;7.80;5.10;;;21.40;99.90;;;;;;4998517;28;20042;-63
2021/07/10 10:10:37;;;;;;;5.97;4.25;;;21.20;99.90;;;;;;4990380;28;20058;-65
2021/07/10 10:13:08;;;;;;;5.40;4.55;;;21.50;99.90;;;;;;4994832;28;20050;-67
2021/07/10 10:15:40;;;;;;;5.00;3.75;;;21.70;99.90;;;;;;4996824;28;20127;-60
2021/07/10 10:18:08;;;;;;;5.85;5.25;;;21.50;99.90;;;;;;4993923;28;20050;-59
2021/07/10 10:20:36;;;;;;;7.10;5.72;;;21.60;99.90;;;;;;5004092;28;20082;-62
2021/07/10 10:23:03;;;;;;;9.65;6.10;;;21.70;99.90;;;;;;4998257;28;20043;-65
2021/07/10 10:25:29;;;;;;;7.82;5.32;;;21.60;99.90;;;;;;5013239;28;20050;-64
2021/07/10 10:27:57;;;;;;;5.65;5.03;;;22.00;99.90;;;;;;4996868;28;20049;-64
2021/07/10 10:30:23;;;;;;;4.65;4.20;;;22.30;99.90;;;;;;4990292;28;20046;-66
2021/07/10 10:32:50;;;;;;;8.13;6.05;;;22.60;99.90;;;;;;5000798;28;20073;-66
2021/07/10 10:35:18;;;;;;;6.30;5.43;;;22.10;99.90;;;;;;4994125;28;20034;-62
2021/07/10 10:37:45;;;;;;;6.15;5.28;;;22.50;99.90;;;;;;5000639;28;20050;-68
2021/07/10 10:40:17;;;;;;;8.37;5.57;;;22.30;99.90;;;;;;4998944;28;20041;-60
2021/07/10 10:42:44;;;;;;;6.70;6.00;;;22.10;99.90;;;;;;5003995;28;20054;-60
2021/07/10 10:45:11;;;;;;;9.55;6.03;;;22.10;99.90;;;;;;4998483;28;20499;-62
2021/07/10 10:47:43;;;;;;;4.93;4.10;;;22.30;99.90;;;;;;4998255;28;20053;-61
2021/07/10 10:50:25;;;;;;;4.35;3.50;;;22.10;99.90;;;;;;4991878;28;20046;-63
2021/07/10 10:52:53;;;;;;;4.82;3.60;;;22.40;99.90;;;;;;4998524;28;20039;-71
2021/07/10 10:55:33;;;;;;;7.18;3.75;;;22.80;99.90;;;;;;4992897;28;20045;-70
2021/07/10 10:58:16;;;;;;;8.35;4.50;;;22.60;99.90;;;;;;5001968;28;20053;-72
2021/07/10 11:00:48;;;;;;;5.60;4.30;;;22.40;99.60;;;;;;4999972;28;20073;-66
2021/07/10 11:03:19;;;;;;;4.97;3.85;;;22.30;99.90;;;;;;4999458;28;20042;-66
2021/07/10 11:05:58;;;;;;;5.18;4.57;;;22.80;99.90;;;;;;4998784;28;20042;-69
2021/07/10 11:08:29;;;;;;;5.05;3.88;;;22.50;99.90;;;;;;4991047;28;20050;-68
2021/07/10 11:10:58;;;;;;;5.68;4.93;;;22.40;99.90;;;;;;4992167;28;20047;-67
2021/07/10 11:13:32;;;;;;;4.97;4.22;;;22.60;99.90;;;;;;4989678;28;20061;-63
2021/07/10 11:16:16;;;;;;;7.93;5.03;;;23.00;99.90;;;;;;4991739;28;20054;-64
2021/07/10 11:19:02;;;;;;;5.18;4.65;;;22.70;99.80;;;;;;4991215;28;20058;-67
2021/07/10 11:21:37;;;;;;;4.95;4.10;;;22.60;99.90;;;;;;4990692;28;20038;-68
2021/07/10 11:26:56;;;;;;;6.30;4.78;;;23.10;99.90;;;;;;4987321;28;20063;-67
2021/07/10 11:29:27;;;;;;;7.35;4.30;;;22.80;99.10;;;;;;4987720;28;20049;-66
2021/07/10 11:32:16;;;;;;;4.85;3.45;;;23.20;99.70;;;;;;4985346;28;20066;-70
2021/07/10 11:34:52;;;;;;;6.32;4.15;;;23.50;99.90;;;;;;4992432;28;20434;-67
2021/07/10 11:37:26;;;;;;;6.65;4.38;;;23.20;99.90;;;;;;4989791;28;20447;-65
2021/07/10 11:40:00;;;;;;;4.18;3.63;;;22.90;98.20;;;;;;4992343;28;20053;-70
2021/07/10 11:42:27;;;;;;;4.93;3.92;;;;;;;;;;4986302;28;20110;-65
2021/07/10 11:45:14;;;;;;;4.50;4.10;;;23.70;99.20;;;;;;4986459;28;20054;-67
2021/07/10 11:47:43;;;;;;;5.90;5.20;;;24.30;98.60;;;;;;4988504;28;20093;-70
2021/07/10 11:50:18;;;;;;;4.70;3.53;;;24.40;96.20;;;;;;4988912;28;20065;-69
2021/07/10 11:53:13;;;;;;;4.60;3.80;;;24.40;96.30;;;;;;4990199;28;20059;-64
2021/07/10 11:55:44;;;;;;;5.45;4.10;;;24.10;97.30;;;;;;4992078;28;20054;-72
2021/07/10 11:58:15;;;;;;;3.75;3.35;;;24.20;98.70;;;;;;4992708;28;20061;-69
2021/07/10 12:00:42;;;;;;;5.82;3.97;;;24.90;95.60;;;;;;5001082;28;20054;-70
2021/07/10 12:03:24;;;;;;;5.30;3.30;;;24.60;95.60;;;;;;4990169;28;20127;-70
2021/07/10 12:05:53;;;;;;;5.38;3.83;;;24.30;96.90;;;;;;4993700;28;20076;-71
2021/07/10 12:08:20;;;;;;;5.45;3.78;;;24.20;97.70;;;;;;4995514;28;20053;-71
2021/07/10 12:10:47;;;;;;;4.93;4.22;;;24.40;96.80;;;;;;5006130;28;20053;-70
2021/07/10 12:13:18;;;;;;;4.65;4.15;;;23.90;97.60;;;;;;5002296;28;20050;-66
2021/07/10 12:15:52;;;;;;;6.07;4.10;;;24.10;96.90;;;;;;4997911;28;20035;-64
2021/07/10 12:18:20;;;;;;;4.60;4.13;;;24.30;98.40;;;;;;5001799;28;20042;-67
2021/07/10 12:20:50;;;;;;;5.70;3.58;;;24.60;98.10;;;;;;5000944;28;20046;-71
2021/07/10 12:23:31;;;;;;;5.90;3.72;;;24.50;96.70;;;;;;5005078;28;20046;-70
2021/07/10 12:26:19;;;;;;;5.75;4.03;;;24.60;97.90;;;;;;4989968;28;20046;-72
2021/07/10 12:28:54;;;;;;;4.72;3.95;;;24.70;98.00;;;;;;4995801;28;20105;-65
2021/07/10 12:31:35;;;;;;;5.63;4.45;;;24.70;96.50;;;;;;4994339;28;20047;-64
2021/07/10 12:34:04;;;;;;;7.28;4.88;;;23.80;97.50;;;;;;4992648;28;20046;-67
2021/07/10 12:36:35;;;;;;;12.80;4.80;;;23.30;98.10;;;;;;5005560;28;20050;-67
2021/07/10 12:39:23;;;;;;;6.35;4.85;;;23.80;97.70;;;;;;5004610;28;20085;-67
2021/07/10 12:41:55;;;;;;;5.53;4.00;;;23.90;98.00;;;;;;5004417;28;20053;-63
2021/07/10 12:44:29;;;;;;;4.55;4.13;;;24.20;98.80;;;;;;4996360;28;20050;-61